Time,TemperatureF,DewpointF,PressureIn,WindDirection,WindDirectionDegrees,WindSpeedMPH,WindSpeedGustMPH,Humidity,HourlyPrecipIn,Conditions,Clouds,dailyrainin,SoftwareType,DateUTC
2013-10-15 00:00:00,48.3,46.9,30.27,South,181,0.0,0.0,95,0.00,,,0.00,Wunderground v.1.15,2013-10-15 04:00:00,
2013-10-15 00:01:00,48.3,46.9,30.27,South,181,0.0,0.0,95,0.00,,,0.00,Wunderground v.1.15,2013-10-15 04:01:00,
2013-10-15 00:03:00,48.3,46.9,30.27,South,181,0.0,0.0,95,0.00,,,0.00,Wunderground v.1.15,2013-10-15 04:03:00,
2013-10-15 00:07:00,48.4,47.0,30.27,South,181,0.0,0.0,95,0.00,,,0.00,Wunderground v.1.15,2013-10-15 04:07:00,
2013-10-15 00:08:00,48.4,47.0,30.27,South,181,0.0,0.0,95,0.00,,,0.00,Wunderground v.1.15,2013-10-15 04:08:00,
2013-10-15 00:10:00,48.4,47.0,30.27,South,181,0.0,0.0,95,0.00,,,0.00,Wunderground v.1.15,2013-10-15 04:10:00,
2013-10-15 00:16:00,48.5,47.1,30.27,South,181,0.0,0.0,95,0.00,,,0.00,Wunderground v.1.15,2013-10-15 04:16:00,
2013-10-15 00:21:00,48.6,47.5,30.27,South,181,0.0,0.0,96,0.00,,,0.00,Wunderground v.1.15,2013-10-15 04:21:00,
2013-10-15 00:26:00,48.8,47.7,30.27,South,181,0.0,0.0,96,0.00,,,0.00,Wunderground v.1.15,2013-10-15 04:26:00,
2013-10-15 00:31:00,49.0,47.9,30.27,South,181,0.0,0.0,96,0.00,,,0.00,Wunderground v.1.15,2013-10-15 04:31:00,
2013-10-15 00:37:00,49.2,48.1,30.27,South,181,0.0,0.0,96,0.00,,,0.00,Wunderground v.1.15,2013-10-15 04:37:00,
2013-10-15 00:42:00,49.3,47.9,30.26,South,181,0.0,0.0,95,0.00,,,0.00,Wunderground v.1.15,2013-10-15 04:42:00,
2013-10-15 00:47:00,49.4,48.0,30.26,South,181,0.0,0.0,95,0.00,,,0.00,Wunderground v.1.15,2013-10-15 04:47:00,
2013-10-15 00:52:00,49.4,48.0,30.26,South,181,0.0,0.0,95,0.00,,,0.00,Wunderground v.1.15,2013-10-15 04:52:00,
2013-10-15 00:57:00,49.5,48.1,30.26,South,181,0.0,0.0,95,0.00,,,0.00,Wunderground v.1.15,2013-10-15 04:57:00,
2013-10-15 01:03:00,49.7,48.3,30.26,South,181,0.0,0.0,95,0.00,,,0.00,Wunderground v.1.15,2013-10-15 05:03:00,
2013-10-15 01:08:00,49.8,48.1,30.26,South,181,0.0,0.0,94,0.00,,,0.00,Wunderground v.1.15,2013-10-15 05:08:00,
2013-10-15 01:13:00,49.9,48.2,30.26,South,181,0.0,0.0,94,0.00,,,0.00,Wunderground v.1.15,2013-10-15 05:13:00,
2013-10-15 01:18:00,50.1,48.4,30.26,South,181,0.0,0.0,94,0.00,,,0.00,Wunderground v.1.15,2013-10-15 05:18:00,
2013-10-15 01:24:00,50.1,48.4,30.26,South,181,0.0,0.0,94,0.00,,,0.00,Wunderground v.1.15,2013-10-15 05:24:00,
2013-10-15 01:29:00,50.2,48.5,30.25,South,181,0.0,0.0,94,0.00,,,0.00,Wunderground v.1.15,2013-10-15 05:29:00,
2013-10-15 01:34:00,50.3,48.4,30.25,South,181,0.0,0.0,93,0.00,,,0.00,Wunderground v.1.15,2013-10-15 05:34:00,
2013-10-15 01:39:00,50.4,48.5,30.25,South,181,0.0,0.0,93,0.00,,,0.00,Wunderground v.1.15,2013-10-15 05:39:00,
2013-10-15 01:44:00,50.3,48.1,30.25,South,181,0.0,0.0,92,0.00,,,0.00,Wunderground v.1.15,2013-10-15 05:44:00,
2013-10-15 01:50:00,50.2,48.0,30.25,South,181,0.0,0.0,92,0.00,,,0.00,Wunderground v.1.15,2013-10-15 05:50:00,
2013-10-15 01:56:00,50.1,47.9,30.25,South,181,0.0,0.0,92,0.00,,,0.00,Wunderground v.1.15,2013-10-15 05:56:00,
2013-10-15 02:01:00,49.8,47.6,30.25,South,181,0.0,0.0,92,0.00,,,0.00,Wunderground v.1.15,2013-10-15 06:01:00,
2013-10-15 02:09:00,49.6,47.4,30.25,South,181,0.0,0.0,92,0.00,,,0.00,Wunderground v.1.15,2013-10-15 06:09:00,
2013-10-15 02:15:00,49.4,47.2,30.25,South,181,0.0,0.0,92,0.00,,,0.00,Wunderground v.1.15,2013-10-15 06:15:00,
2013-10-15 02:20:00,49.3,47.4,30.25,South,181,0.0,0.0,93,0.00,,,0.00,Wunderground v.1.15,2013-10-15 06:20:00,
2013-10-15 02:25:00,49.2,47.3,30.25,South,181,0.0,0.0,93,0.00,,,0.00,Wunderground v.1.15,2013-10-15 06:25:00,
2013-10-15 02:30:00,49.1,47.2,30.25,South,181,0.0,0.0,93,0.00,,,0.00,Wunderground v.1.15,2013-10-15 06:30:00,
2013-10-15 02:35:00,49.0,47.1,30.25,South,181,0.0,0.0,93,0.00,,,0.00,Wunderground v.1.15,2013-10-15 06:35:00,
2013-10-15 02:40:00,48.9,47.0,30.25,South,181,0.0,0.0,93,0.00,,,0.00,Wunderground v.1.15,2013-10-15 06:40:00,
2013-10-15 02:45:00,48.8,46.9,30.25,South,181,0.0,0.0,93,0.00,,,0.00,Wunderground v.1.15,2013-10-15 06:45:00,
2013-10-15 02:50:00,48.8,47.2,30.25,South,181,0.0,0.0,94,0.00,,,0.00,Wunderground v.1.15,2013-10-15 06:50:00,
2013-10-15 02:55:00,48.7,47.1,30.25,South,181,0.0,0.0,94,0.00,,,0.00,Wunderground v.1.15,2013-10-15 06:55:00,
2013-10-15 03:00:00,48.7,47.1,30.25,South,181,0.0,0.0,94,0.00,,,0.00,Wunderground v.1.15,2013-10-15 07:00:00,
2013-10-15 03:06:00,48.7,47.1,30.25,South,181,0.0,0.0,94,0.00,,,0.00,Wunderground v.1.15,2013-10-15 07:06:00,
2013-10-15 03:11:00,48.7,47.3,30.25,South,181,0.0,0.0,95,0.00,,,0.00,Wunderground v.1.15,2013-10-15 07:11:00,
2013-10-15 03:16:00,48.7,47.3,30.25,South,181,0.0,0.0,95,0.00,,,0.00,Wunderground v.1.15,2013-10-15 07:16:00,
2013-10-15 03:21:00,48.7,47.3,30.25,South,181,0.0,0.0,95,0.00,,,0.00,Wunderground v.1.15,2013-10-15 07:21:00,
2013-10-15 03:26:00,48.8,47.4,30.25,South,181,0.0,0.0,95,0.00,,,0.00,Wunderground v.1.15,2013-10-15 07:26:00,
2013-10-15 03:31:00,48.8,47.4,30.25,South,181,0.0,0.0,95,0.00,,,0.00,Wunderground v.1.15,2013-10-15 07:31:00,
2013-10-15 03:37:00,48.9,47.5,30.25,South,181,0.0,0.0,95,0.00,,,0.00,Wunderground v.1.15,2013-10-15 07:37:00,
2013-10-15 03:42:00,48.9,47.5,30.25,South,181,0.0,0.0,95,0.00,,,0.00,Wunderground v.1.15,2013-10-15 07:42:00,
2013-10-15 03:47:00,48.9,47.5,30.25,South,181,0.0,0.0,95,0.00,,,0.00,Wunderground v.1.15,2013-10-15 07:47:00,
2013-10-15 03:53:00,49.0,47.6,30.25,South,181,0.0,0.0,95,0.00,,,0.00,Wunderground v.1.15,2013-10-15 07:53:00,
2013-10-15 03:58:00,49.1,47.7,30.25,South,181,0.0,0.0,95,0.00,,,0.00,Wunderground v.1.15,2013-10-15 07:58:00,
2013-10-15 04:04:00,49.2,47.8,30.25,South,181,0.0,0.0,95,0.00,,,0.00,Wunderground v.1.15,2013-10-15 08:04:00,
2013-10-15 04:09:00,49.2,47.8,30.25,South,181,0.0,0.0,95,0.00,,,0.00,Wunderground v.1.15,2013-10-15 08:09:00,
2013-10-15 04:14:00,49.4,48.0,30.24,South,181,0.0,0.0,95,0.00,,,0.00,Wunderground v.1.15,2013-10-15 08:14:00,
2013-10-15 04:19:00,49.4,47.7,30.24,South,181,0.0,0.0,94,0.00,,,0.00,Wunderground v.1.15,2013-10-15 08:19:00,
2013-10-15 04:24:00,49.4,47.7,30.24,South,181,0.0,0.0,94,0.00,,,0.00,Wunderground v.1.15,2013-10-15 08:24:00,
2013-10-15 04:29:00,49.3,47.4,30.24,South,181,0.0,0.0,93,0.00,,,0.00,Wunderground v.1.15,2013-10-15 08:29:00,
2013-10-15 04:35:00,49.1,47.2,30.24,South,181,0.0,0.0,93,0.00,,,0.00,Wunderground v.1.15,2013-10-15 08:35:00,
2013-10-15 04:40:00,49.0,47.1,30.24,South,181,0.0,0.0,93,0.00,,,0.00,Wunderground v.1.15,2013-10-15 08:40:00,
2013-10-15 04:45:00,48.8,46.9,30.24,South,181,0.0,0.0,93,0.00,,,0.00,Wunderground v.1.15,2013-10-15 08:45:00,
2013-10-15 04:50:00,48.6,47.0,30.24,South,181,0.0,0.0,94,0.00,,,0.00,Wunderground v.1.15,2013-10-15 08:50:00,
2013-10-15 04:51:00,48.6,47.0,30.24,South,181,0.0,0.0,94,0.00,,,0.00,Wunderground v.1.15,2013-10-15 08:51:00,
2013-10-15 04:56:00,48.4,46.8,30.24,South,181,0.0,0.0,94,0.00,,,0.00,Wunderground v.1.15,2013-10-15 08:56:00,
2013-10-15 05:01:00,48.2,46.6,30.24,South,181,0.0,0.0,94,0.00,,,0.00,Wunderground v.1.15,2013-10-15 09:01:00,
2013-10-15 05:07:00,48.0,46.4,30.24,South,181,0.0,0.0,94,0.00,,,0.00,Wunderground v.1.15,2013-10-15 09:07:00,
2013-10-15 05:12:00,47.8,46.2,30.24,South,181,0.0,0.0,94,0.00,,,0.00,Wunderground v.1.15,2013-10-15 09:12:00,
2013-10-15 05:17:00,47.7,46.1,30.24,South,181,0.0,0.0,94,0.00,,,0.00,Wunderground v.1.15,2013-10-15 09:17:00,
2013-10-15 05:22:00,47.5,45.9,30.24,South,181,0.0,0.0,94,0.00,,,0.00,Wunderground v.1.15,2013-10-15 09:22:00,
2013-10-15 05:27:00,47.3,45.7,30.25,South,181,0.0,0.0,94,0.00,,,0.00,Wunderground v.1.15,2013-10-15 09:27:00,
2013-10-15 05:32:00,47.2,45.6,30.25,South,181,0.0,0.0,94,0.00,,,0.00,Wunderground v.1.15,2013-10-15 09:32:00,
2013-10-15 05:37:00,47.1,45.5,30.25,South,181,0.0,0.0,94,0.00,,,0.00,Wunderground v.1.15,2013-10-15 09:37:00,
2013-10-15 05:42:00,47.0,45.6,30.25,South,181,0.0,0.0,95,0.00,,,0.00,Wunderground v.1.15,2013-10-15 09:42:00,
2013-10-15 05:47:00,46.9,45.5,30.26,South,181,0.0,0.0,95,0.00,,,0.00,Wunderground v.1.15,2013-10-15 09:47:00,
2013-10-15 05:52:00,46.9,45.5,30.26,South,181,0.0,0.0,95,0.00,,,0.00,Wunderground v.1.15,2013-10-15 09:52:00,
2013-10-15 05:57:00,47.0,45.9,30.26,South,181,0.0,0.0,96,0.00,,,0.00,Wunderground v.1.15,2013-10-15 09:57:00,
2013-10-15 06:03:00,47.2,46.1,30.26,South,181,0.0,0.0,96,0.00,,,0.00,Wunderground v.1.15,2013-10-15 10:03:00,
2013-10-15 06:08:00,47.3,46.2,30.25,South,181,0.0,0.0,96,0.00,,,0.00,Wunderground v.1.15,2013-10-15 10:08:00,
2013-10-15 06:13:00,47.4,46.3,30.26,South,181,0.0,0.0,96,0.00,,,0.00,Wunderground v.1.15,2013-10-15 10:13:00,
2013-10-15 06:18:00,47.5,46.4,30.26,South,181,0.0,0.0,96,0.00,,,0.00,Wunderground v.1.15,2013-10-15 10:18:00,
2013-10-15 06:23:00,47.5,46.4,30.25,South,181,0.0,0.0,96,0.00,,,0.00,Wunderground v.1.15,2013-10-15 10:23:00,
2013-10-15 06:28:00,47.6,46.5,30.25,South,181,0.0,0.0,96,0.00,,,0.00,Wunderground v.1.15,2013-10-15 10:28:00,
2013-10-15 06:33:00,47.7,46.6,30.25,South,181,0.0,0.0,96,0.00,,,0.00,Wunderground v.1.15,2013-10-15 10:33:00,
2013-10-15 06:39:00,47.9,47.1,30.25,South,181,0.0,0.0,97,0.00,,,0.00,Wunderground v.1.15,2013-10-15 10:39:00,
2013-10-15 06:44:00,48.0,47.2,30.25,South,181,0.0,0.0,97,0.00,,,0.00,Wunderground v.1.15,2013-10-15 10:44:00,
2013-10-15 06:49:00,48.1,47.3,30.26,South,181,0.0,0.0,97,0.00,,,0.00,Wunderground v.1.15,2013-10-15 10:49:00,
2013-10-15 06:55:00,48.3,47.5,30.26,South,181,0.0,0.0,97,0.00,,,0.00,Wunderground v.1.15,2013-10-15 10:55:00,
2013-10-15 07:00:00,48.5,47.7,30.26,South,181,0.0,0.0,97,0.00,,,0.00,Wunderground v.1.15,2013-10-15 11:00:00,
2013-10-15 07:06:00,48.7,47.9,30.26,South,181,0.0,0.0,97,0.00,,,0.00,Wunderground v.1.15,2013-10-15 11:06:00,
2013-10-15 07:11:00,48.8,48.0,30.26,South,181,0.0,0.0,97,0.00,,,0.00,Wunderground v.1.15,2013-10-15 11:11:00,
2013-10-15 07:16:00,48.9,48.1,30.26,South,181,0.0,0.0,97,0.00,,,0.00,Wunderground v.1.15,2013-10-15 11:16:00,
2013-10-15 07:21:00,49.0,47.9,30.26,South,181,0.0,0.0,96,0.00,,,0.00,Wunderground v.1.15,2013-10-15 11:21:00,
2013-10-15 07:26:00,49.1,48.0,30.26,South,181,0.0,0.0,96,0.00,,,0.00,Wunderground v.1.15,2013-10-15 11:26:00,
2013-10-15 07:31:00,49.2,48.1,30.26,South,181,0.0,0.0,96,0.00,,,0.00,Wunderground v.1.15,2013-10-15 11:31:00,
2013-10-15 07:37:00,49.4,48.3,30.26,South,181,0.0,0.0,96,0.00,,,0.00,Wunderground v.1.15,2013-10-15 11:37:00,
2013-10-15 07:42:00,49.6,48.8,30.26,South,181,0.0,0.0,97,0.00,,,0.00,Wunderground v.1.15,2013-10-15 11:42:00,
2013-10-15 07:47:00,49.8,48.7,30.26,South,181,0.0,0.0,96,0.00,,,0.00,Wunderground v.1.15,2013-10-15 11:47:00,
2013-10-15 07:52:00,49.9,48.8,30.26,South,181,0.0,0.0,96,0.00,,,0.00,Wunderground v.1.15,2013-10-15 11:52:00,
2013-10-15 07:57:00,50.1,49.0,30.26,South,181,0.0,0.0,96,0.00,,,0.00,Wunderground v.1.15,2013-10-15 11:57:00,
2013-10-15 08:03:00,50.4,49.3,30.26,South,181,0.0,0.0,96,0.00,,,0.00,Wunderground v.1.15,2013-10-15 12:03:00,
2013-10-15 08:08:00,50.8,49.7,30.26,South,181,0.0,0.0,96,0.00,,,0.00,Wunderground v.1.15,2013-10-15 12:08:00,
2013-10-15 08:13:00,51.1,49.7,30.26,South,181,0.0,0.0,95,0.00,,,0.00,Wunderground v.1.15,2013-10-15 12:13:00,
2013-10-15 08:19:00,51.5,49.8,30.26,South,181,0.0,0.0,94,0.00,,,0.00,Wunderground v.1.15,2013-10-15 12:19:00,
2013-10-15 08:25:00,51.9,49.9,30.26,NW,309,0.0,0.0,93,0.00,,,0.00,Wunderground v.1.15,2013-10-15 12:25:00,
2013-10-15 08:30:00,52.3,50.0,30.26,NW,309,0.0,0.0,92,0.00,,,0.00,Wunderground v.1.15,2013-10-15 12:30:00,
2013-10-15 08:35:00,52.7,50.1,30.26,NW,309,0.0,0.0,91,0.00,,,0.00,Wunderground v.1.15,2013-10-15 12:35:00,
2013-10-15 08:40:00,53.2,50.6,30.26,NW,309,0.0,0.0,91,0.00,,,0.00,Wunderground v.1.15,2013-10-15 12:40:00,
2013-10-15 08:45:00,53.6,50.7,30.26,NNW,348,0.0,0.0,90,0.00,,,0.00,Wunderground v.1.15,2013-10-15 12:45:00,
2013-10-15 08:50:00,54.1,51.2,30.26,NNE,24,0.0,0.0,90,0.00,,,0.00,Wunderground v.1.15,2013-10-15 12:50:00,
2013-10-15 08:55:00,54.6,51.1,30.26,NNE,19,0.0,1.0,88,0.00,,,0.00,Wunderground v.1.15,2013-10-15 12:55:00,
2013-10-15 09:00:00,55.2,51.4,30.26,NW,321,0.0,0.0,87,0.00,,,0.00,Wunderground v.1.15,2013-10-15 13:00:00,
2013-10-15 09:06:00,55.8,51.7,30.26,NNW,344,0.0,1.0,86,0.00,,,0.00,Wunderground v.1.15,2013-10-15 13:06:00,
2013-10-15 09:11:00,56.4,51.9,30.26,NNE,13,0.0,0.0,85,0.00,,,0.00,Wunderground v.1.15,2013-10-15 13:11:00,
2013-10-15 09:16:00,56.8,51.4,30.26,North,355,0.0,0.0,82,0.00,,,0.00,Wunderground v.1.15,2013-10-15 13:16:00,
2013-10-15 09:21:00,57.2,51.8,30.26,ESE,121,0.0,1.0,82,0.00,,,0.00,Wunderground v.1.15,2013-10-15 13:21:00,
2013-10-15 09:26:00,57.6,51.8,30.26,ESE,123,0.0,1.0,81,0.00,,,0.00,Wunderground v.1.15,2013-10-15 13:26:00,
2013-10-15 09:31:00,57.9,51.8,30.26,ENE,67,0.0,0.0,80,0.00,,,0.00,Wunderground v.1.15,2013-10-15 13:31:00,
2013-10-15 09:36:00,58.2,51.7,30.26,NNE,24,0.0,0.0,79,0.00,,,0.00,Wunderground v.1.15,2013-10-15 13:36:00,
2013-10-15 09:41:00,58.6,51.8,30.26,NE,36,0.0,1.0,78,0.00,,,0.00,Wunderground v.1.15,2013-10-15 13:41:00,
2013-10-15 09:46:00,58.9,51.7,30.26,NE,34,1.0,2.0,77,0.00,,,0.00,Wunderground v.1.15,2013-10-15 13:46:00,
2013-10-15 09:51:00,59.3,51.7,30.26,NE,39,1.0,1.0,76,0.00,,,0.00,Wunderground v.1.15,2013-10-15 13:51:00,
2013-10-15 09:57:00,59.6,51.7,30.26,NNE,12,0.0,2.0,75,0.00,,,0.00,Wunderground v.1.15,2013-10-15 13:57:00,
2013-10-15 10:03:00,59.9,51.6,30.26,NE,53,0.0,2.0,74,0.00,,,0.00,Wunderground v.1.15,2013-10-15 14:03:00,
2013-10-15 10:08:00,60.1,51.8,30.26,NE,34,1.0,2.0,74,0.00,,,0.00,Wunderground v.1.15,2013-10-15 14:08:00,
2013-10-15 10:13:00,60.3,52.0,30.26,North,349,1.0,1.0,74,0.00,,,0.00,Wunderground v.1.15,2013-10-15 14:13:00,
2013-10-15 10:18:00,60.5,52.5,30.26,NNW,345,1.0,1.0,75,0.00,,,0.00,Wunderground v.1.15,2013-10-15 14:18:00,
2013-10-15 10:23:00,60.6,52.3,30.26,NNE,30,0.0,3.0,74,0.00,,,0.00,Wunderground v.1.15,2013-10-15 14:23:00,
2013-10-15 10:28:00,60.8,52.5,30.26,ENE,69,1.0,3.0,74,0.00,,,0.00,Wunderground v.1.15,2013-10-15 14:28:00,
2013-10-15 10:33:00,61.0,52.3,30.26,NNE,27,1.0,3.0,73,0.00,,,0.00,Wunderground v.1.15,2013-10-15 14:33:00,
2013-10-15 10:39:00,61.2,52.5,30.26,NNW,327,0.0,3.0,73,0.00,,,0.00,Wunderground v.1.15,2013-10-15 14:39:00,
2013-10-15 10:44:00,61.4,53.0,30.26,WNW,293,0.0,3.0,74,0.00,,,0.00,Wunderground v.1.15,2013-10-15 14:44:00,
2013-10-15 10:49:00,61.7,53.0,30.26,NNW,338,1.0,3.0,73,0.00,,,0.00,Wunderground v.1.15,2013-10-15 14:49:00,
2013-10-15 10:54:00,62.0,52.9,30.26,North,360,1.0,3.0,72,0.00,,,0.00,Wunderground v.1.15,2013-10-15 14:54:00,
2013-10-15 10:59:00,62.2,53.1,30.26,North,355,1.0,3.0,72,0.00,,,0.00,Wunderground v.1.15,2013-10-15 14:59:00,
2013-10-15 11:04:00,62.5,53.0,30.26,NW,326,1.0,3.0,71,0.00,,,0.00,Wunderground v.1.15,2013-10-15 15:04:00,
2013-10-15 11:09:00,62.7,52.8,30.26,NNE,13,1.0,3.0,70,0.00,,,0.00,Wunderground v.1.15,2013-10-15 15:09:00,
2013-10-15 11:14:00,62.8,53.3,30.26,ENE,61,0.0,1.0,71,0.00,,,0.00,Wunderground v.1.15,2013-10-15 15:14:00,
2013-10-15 11:19:00,63.0,53.4,30.26,East,80,0.0,2.0,71,0.00,,,0.00,Wunderground v.1.15,2013-10-15 15:19:00,
2013-10-15 11:24:00,63.2,53.3,30.26,NNW,342,1.0,2.0,70,0.00,,,0.00,Wunderground v.1.15,2013-10-15 15:24:00,
2013-10-15 11:29:00,63.3,53.0,30.26,NNW,340,1.0,3.0,69,0.00,,,0.00,Wunderground v.1.15,2013-10-15 15:29:00,
2013-10-15 11:35:00,63.4,52.7,30.26,SE,127,1.0,3.0,68,0.00,,,0.00,Wunderground v.1.15,2013-10-15 15:35:00,
2013-10-15 11:40:00,63.5,53.1,30.26,NW,318,0.0,3.0,69,0.00,,,0.00,Wunderground v.1.15,2013-10-15 15:40:00,
2013-10-15 11:45:00,63.5,53.5,30.26,West,280,1.0,3.0,70,0.00,,,0.00,Wunderground v.1.15,2013-10-15 15:45:00,
2013-10-15 11:50:00,63.7,52.9,30.26,NNW,348,1.0,1.0,68,0.00,,,0.00,Wunderground v.1.15,2013-10-15 15:50:00,
2013-10-15 11:55:00,63.9,53.5,30.26,NE,50,1.0,3.0,69,0.00,,,0.00,Wunderground v.1.15,2013-10-15 15:55:00,
2013-10-15 12:02:00,64.0,54.0,30.26,NNE,15,1.0,1.0,70,0.00,,,0.00,Wunderground v.1.15,2013-10-15 16:02:00,
2013-10-15 12:07:00,64.2,54.2,30.25,North,355,1.0,1.0,70,0.00,,,0.00,Wunderground v.1.15,2013-10-15 16:07:00,
2013-10-15 12:13:00,64.4,54.0,30.25,NNE,15,1.0,1.0,69,0.00,,,0.00,Wunderground v.1.15,2013-10-15 16:13:00,
2013-10-15 12:18:00,64.5,54.1,30.25,NW,311,0.0,1.0,69,0.00,,,0.00,Wunderground v.1.15,2013-10-15 16:18:00,
2013-10-15 12:23:00,64.6,54.2,30.25,ENE,72,0.0,0.0,69,0.00,,,0.00,Wunderground v.1.15,2013-10-15 16:23:00,
2013-10-15 12:28:00,64.8,54.0,30.25,East,90,0.0,2.0,68,0.00,,,0.00,Wunderground v.1.15,2013-10-15 16:28:00,
2013-10-15 12:33:00,64.9,54.5,30.25,NNW,337,1.0,4.0,69,0.00,,,0.00,Wunderground v.1.15,2013-10-15 16:33:00,
2013-10-15 12:38:00,65.0,54.6,30.25,North,351,1.0,4.0,69,0.00,,,0.00,Wunderground v.1.15,2013-10-15 16:38:00,
2013-10-15 12:43:00,65.1,53.9,30.25,ENE,68,1.0,4.0,67,0.00,,,0.00,Wunderground v.1.15,2013-10-15 16:43:00,
2013-10-15 12:48:00,65.3,54.5,30.25,NE,51,0.0,4.0,68,0.00,,,0.00,Wunderground v.1.15,2013-10-15 16:48:00,
2013-10-15 12:53:00,65.4,54.6,30.24,North,5,0.0,4.0,68,0.00,,,0.00,Wunderground v.1.15,2013-10-15 16:53:00,
2013-10-15 12:58:00,65.4,55.0,30.24,NE,34,0.0,4.0,69,0.00,,,0.00,Wunderground v.1.15,2013-10-15 16:58:00,
2013-10-15 13:04:00,65.2,54.8,30.24,North,355,1.0,3.0,69,0.00,,,0.00,Wunderground v.1.15,2013-10-15 17:04:00,
2013-10-15 13:09:00,65.2,54.4,30.24,East,95,1.0,4.0,68,0.00,,,0.00,Wunderground v.1.15,2013-10-15 17:09:00,
2013-10-15 13:14:00,65.2,54.8,30.24,NE,34,1.0,3.0,69,0.00,,,0.00,Wunderground v.1.15,2013-10-15 17:14:00,
2013-10-15 13:19:00,65.2,54.8,30.24,North,360,1.0,3.0,69,0.00,,,0.00,Wunderground v.1.15,2013-10-15 17:19:00,
2013-10-15 13:24:00,65.1,54.7,30.23,North,355,1.0,3.0,69,0.00,,,0.00,Wunderground v.1.15,2013-10-15 17:24:00,
2013-10-15 13:29:00,65.2,54.8,30.24,NE,52,1.0,4.0,69,0.00,,,0.00,Wunderground v.1.15,2013-10-15 17:29:00,
2013-10-15 13:34:00,65.0,55.0,30.23,North,355,1.0,4.0,70,0.00,,,0.00,Wunderground v.1.15,2013-10-15 17:34:00,
2013-10-15 13:39:00,65.0,55.0,30.23,East,80,1.0,4.0,70,0.00,,,0.00,Wunderground v.1.15,2013-10-15 17:39:00,
2013-10-15 13:44:00,64.7,54.3,30.23,NE,38,0.0,4.0,69,0.00,,,0.00,Wunderground v.1.15,2013-10-15 17:44:00,
2013-10-15 13:49:00,64.4,54.4,30.23,North,355,1.0,4.0,70,0.00,,,0.00,Wunderground v.1.15,2013-10-15 17:49:00,
2013-10-15 13:55:00,64.3,54.7,30.23,NE,43,2.0,4.0,71,0.00,,,0.00,Wunderground v.1.15,2013-10-15 17:55:00,
2013-10-15 14:00:00,64.3,55.1,30.23,East,90,1.0,1.0,72,0.00,,,0.00,Wunderground v.1.15,2013-10-15 18:00:00,
2013-10-15 14:06:00,64.2,55.0,30.22,NE,34,1.0,3.0,72,0.00,,,0.00,Wunderground v.1.15,2013-10-15 18:06:00,
2013-10-15 14:11:00,64.3,55.1,30.22,NE,42,1.0,1.0,72,0.00,,,0.00,Wunderground v.1.15,2013-10-15 18:11:00,
2013-10-15 14:16:00,64.3,55.1,30.22,NE,54,1.0,2.0,72,0.00,,,0.00,Wunderground v.1.15,2013-10-15 18:16:00,
2013-10-15 14:22:00,64.2,54.6,30.22,NNW,342,1.0,5.0,71,0.00,,,0.00,Wunderground v.1.15,2013-10-15 18:22:00,
2013-10-15 14:27:00,63.9,54.7,30.22,NNW,345,1.0,5.0,72,0.00,,,0.00,Wunderground v.1.15,2013-10-15 18:27:00,
2013-10-15 14:32:00,63.8,54.6,30.21,NNE,15,1.0,5.0,72,0.00,,,0.00,Wunderground v.1.15,2013-10-15 18:32:00,
2013-10-15 14:37:00,63.7,54.9,30.21,ENE,60,0.0,5.0,73,0.00,,,0.00,Wunderground v.1.15,2013-10-15 18:37:00,
2013-10-15 14:42:00,63.7,54.5,30.21,NNE,32,0.0,5.0,72,0.00,,,0.00,Wunderground v.1.15,2013-10-15 18:42:00,
2013-10-15 14:47:00,63.7,54.5,30.21,NNE,14,1.0,5.0,72,0.00,,,0.00,Wunderground v.1.15,2013-10-15 18:47:00,
2013-10-15 14:52:00,63.7,54.9,30.21,NNE,31,1.0,5.0,73,0.00,,,0.00,Wunderground v.1.15,2013-10-15 18:52:00,
2013-10-15 14:57:00,63.4,54.6,30.21,NE,40,1.0,5.0,73,0.00,,,0.00,Wunderground v.1.15,2013-10-15 18:57:00,
2013-10-15 15:03:00,63.4,54.6,30.21,North,350,1.0,2.0,73,0.00,,,0.00,Wunderground v.1.15,2013-10-15 19:03:00,
2013-10-15 15:08:00,63.4,55.0,30.21,NNE,13,1.0,2.0,74,0.00,,,0.00,Wunderground v.1.15,2013-10-15 19:08:00,
2013-10-15 15:13:00,63.3,54.5,30.21,NE,35,1.0,2.0,73,0.00,,,0.00,Wunderground v.1.15,2013-10-15 19:13:00,
2013-10-15 15:18:00,63.0,54.6,30.21,ESE,118,1.0,2.0,74,0.00,,,0.00,Wunderground v.1.15,2013-10-15 19:18:00,
2013-10-15 15:24:00,62.9,54.5,30.21,North,355,1.0,3.0,74,0.00,,,0.00,Wunderground v.1.15,2013-10-15 19:24:00,
2013-10-15 15:29:00,63.0,54.9,30.21,ENE,72,1.0,3.0,75,0.00,,,0.00,Wunderground v.1.15,2013-10-15 19:29:00,
2013-10-15 15:35:00,63.1,54.7,30.21,NNE,23,1.0,6.0,74,0.00,,,0.00,Wunderground v.1.15,2013-10-15 19:35:00,
2013-10-15 15:40:00,63.1,55.0,30.21,SE,140,1.0,6.0,75,0.00,,,0.00,Wunderground v.1.15,2013-10-15 19:40:00,
2013-10-15 15:45:00,63.0,54.6,30.20,NE,38,1.0,6.0,74,0.00,,,0.00,Wunderground v.1.15,2013-10-15 19:45:00,
2013-10-15 15:50:00,63.1,55.0,30.20,NE,50,1.0,6.0,75,0.00,,,0.00,Wunderground v.1.15,2013-10-15 19:50:00,
2013-10-15 15:55:00,63.1,55.0,30.20,NE,45,1.0,6.0,75,0.00,,,0.00,Wunderground v.1.15,2013-10-15 19:55:00,
2013-10-15 16:00:00,63.0,54.9,30.20,East,83,1.0,1.0,75,0.00,,,0.00,Wunderground v.1.15,2013-10-15 20:00:00,
2013-10-15 16:06:00,63.0,54.9,30.20,ENE,68,1.0,1.0,75,0.00,,,0.00,Wunderground v.1.15,2013-10-15 20:06:00,
2013-10-15 16:11:00,62.9,54.9,30.20,East,94,1.0,1.0,75,0.00,,,0.00,Wunderground v.1.15,2013-10-15 20:11:00,
2013-10-15 16:16:00,62.7,55.0,30.20,South,190,1.0,1.0,76,0.00,,,0.00,Wunderground v.1.15,2013-10-15 20:16:00,
2013-10-15 16:21:00,62.6,54.9,30.20,North,5,1.0,1.0,76,0.00,,,0.00,Wunderground v.1.15,2013-10-15 20:21:00,
2013-10-15 16:26:00,62.5,54.8,30.20,ENE,68,1.0,1.0,76,0.00,,,0.00,Wunderground v.1.15,2013-10-15 20:26:00,
2013-10-15 16:31:00,62.2,54.5,30.20,East,90,0.0,1.0,76,0.00,,,0.00,Wunderground v.1.15,2013-10-15 20:31:00,
2013-10-15 16:37:00,62.2,54.9,30.20,ENE,68,0.0,5.0,77,0.00,,,0.00,Wunderground v.1.15,2013-10-15 20:37:00,
2013-10-15 16:42:00,62.1,54.8,30.20,ENE,73,0.0,5.0,77,0.00,,,0.00,Wunderground v.1.15,2013-10-15 20:42:00,
2013-10-15 16:47:00,62.0,55.1,30.20,ENE,59,0.0,5.0,78,0.00,,,0.00,Wunderground v.1.15,2013-10-15 20:47:00,
2013-10-15 16:53:00,61.8,54.9,30.20,NNE,13,0.0,5.0,78,0.00,,,0.00,Wunderground v.1.15,2013-10-15 20:53:00,
2013-10-15 16:58:00,61.8,54.9,30.20,NNE,17,0.0,5.0,78,0.00,,,0.00,Wunderground v.1.15,2013-10-15 20:58:00,
2013-10-15 17:03:00,61.6,54.7,30.20,SSE,153,1.0,1.0,78,0.00,,,0.00,Wunderground v.1.15,2013-10-15 21:03:00,
2013-10-15 17:08:00,61.4,54.5,30.20,NNE,29,0.0,2.0,78,0.00,,,0.00,Wunderground v.1.15,2013-10-15 21:08:00,
2013-10-15 17:13:00,61.2,54.6,30.20,ESE,108,0.0,1.0,79,0.00,,,0.00,Wunderground v.1.15,2013-10-15 21:13:00,
2013-10-15 17:19:00,61.0,54.4,30.20,NE,38,1.0,1.0,79,0.00,,,0.00,Wunderground v.1.15,2013-10-15 21:19:00,
2013-10-15 17:24:00,60.8,54.6,30.20,NNW,345,1.0,1.0,80,0.00,,,0.00,Wunderground v.1.15,2013-10-15 21:24:00,
2013-10-15 17:29:00,60.5,54.6,30.19,ESE,111,0.0,1.0,81,0.00,,,0.00,Wunderground v.1.15,2013-10-15 21:29:00,
2013-10-15 17:34:00,60.4,54.5,30.20,ESE,111,0.0,5.0,81,0.00,,,0.00,Wunderground v.1.15,2013-10-15 21:34:00,
2013-10-15 17:39:00,60.1,54.6,30.19,NE,43,0.0,5.0,82,0.00,,,0.00,Wunderground v.1.15,2013-10-15 21:39:00,
2013-10-15 17:44:00,59.9,54.4,30.20,NE,43,0.0,5.0,82,0.00,,,0.00,Wunderground v.1.15,2013-10-15 21:44:00,
2013-10-15 17:49:00,59.7,54.5,30.20,NE,43,0.0,5.0,83,0.00,,,0.00,Wunderground v.1.15,2013-10-15 21:49:00,
2013-10-15 17:54:00,59.4,54.2,30.20,NE,50,0.0,5.0,83,0.00,,,0.00,Wunderground v.1.15,2013-10-15 21:54:00,
2013-10-15 17:59:00,59.2,54.4,30.20,South,181,0.0,5.0,84,0.00,,,0.00,Wunderground v.1.15,2013-10-15 21:59:00,
2013-10-15 18:05:00,58.8,54.3,30.20,SSE,154,0.0,0.0,85,0.00,,,0.00,Wunderground v.1.15,2013-10-15 22:05:00,
2013-10-15 18:10:00,58.6,54.1,30.20,ESE,118,0.0,0.0,85,0.00,,,0.00,Wunderground v.1.15,2013-10-15 22:10:00,
2013-10-15 18:15:00,58.3,54.1,30.20,ESE,118,0.0,0.0,86,0.00,,,0.00,Wunderground v.1.15,2013-10-15 22:15:00,
2013-10-15 18:20:00,58.0,53.8,30.20,NNE,22,0.0,0.0,86,0.00,,,0.00,Wunderground v.1.15,2013-10-15 22:20:00,
2013-10-15 18:25:00,57.7,53.5,30.21,NNE,22,0.0,0.0,86,0.00,,,0.00,Wunderground v.1.15,2013-10-15 22:25:00,
2013-10-15 18:31:00,57.4,53.2,30.21,NNE,22,0.0,4.0,86,0.00,,,0.00,Wunderground v.1.15,2013-10-15 22:31:00,
2013-10-15 18:36:00,57.1,53.0,30.21,NNE,22,0.0,4.0,86,0.00,,,0.00,Wunderground v.1.15,2013-10-15 22:36:00,
2013-10-15 18:42:00,56.9,53.1,30.21,NNE,22,0.0,4.0,87,0.00,,,0.00,Wunderground v.1.15,2013-10-15 22:42:00,
2013-10-15 18:47:00,56.6,52.8,30.21,NNE,22,0.0,4.0,87,0.00,,,0.00,Wunderground v.1.15,2013-10-15 22:47:00,
2013-10-15 18:52:00,56.3,52.5,30.21,NNE,22,0.0,4.0,87,0.00,,,0.00,Wunderground v.1.15,2013-10-15 22:52:00,
2013-10-15 18:57:00,56.0,52.5,30.21,NNE,22,0.0,4.0,88,0.00,,,0.00,Wunderground v.1.15,2013-10-15 22:57:00,
2013-10-15 19:03:00,55.6,52.1,30.21,NNE,22,0.0,0.0,88,0.00,,,0.00,Wunderground v.1.15,2013-10-15 23:03:00,
2013-10-15 19:08:00,55.3,52.1,30.21,NNE,22,0.0,0.0,89,0.00,,,0.00,Wunderground v.1.15,2013-10-15 23:08:00,
2013-10-15 19:13:00,55.1,51.9,30.21,NNE,22,0.0,0.0,89,0.00,,,0.00,Wunderground v.1.15,2013-10-15 23:13:00,
2013-10-15 19:18:00,54.8,51.9,30.22,NNE,22,0.0,0.0,90,0.00,,,0.00,Wunderground v.1.15,2013-10-15 23:18:00,
2013-10-15 19:23:00,54.5,51.6,30.22,NNE,22,0.0,0.0,90,0.00,,,0.00,Wunderground v.1.15,2013-10-15 23:23:00,
2013-10-15 19:28:00,54.2,51.3,30.22,NNE,22,0.0,0.0,90,0.00,,,0.00,Wunderground v.1.15,2013-10-15 23:28:00,
2013-10-15 19:33:00,54.1,51.5,30.22,NNE,22,0.0,2.0,91,0.00,,,0.00,Wunderground v.1.15,2013-10-15 23:33:00,
2013-10-15 19:38:00,53.8,51.2,30.22,NNE,22,0.0,2.0,91,0.00,,,0.00,Wunderground v.1.15,2013-10-15 23:38:00,
2013-10-15 19:43:00,53.6,51.0,30.22,NNE,22,0.0,2.0,91,0.00,,,0.00,Wunderground v.1.15,2013-10-15 23:43:00,
2013-10-15 19:48:00,53.4,51.1,30.22,NNE,22,0.0,2.0,92,0.00,,,0.00,Wunderground v.1.15,2013-10-15 23:48:00,
2013-10-15 19:54:00,53.2,50.9,30.22,NNE,22,0.0,2.0,92,0.00,,,0.00,Wunderground v.1.15,2013-10-15 23:54:00,
2013-10-15 20:00:00,53.0,50.7,30.22,NNE,19,0.0,0.0,92,0.00,,,0.00,Wunderground v.1.15,2013-10-16 00:00:00,
2013-10-15 20:06:00,52.9,50.6,30.22,NNE,19,0.0,0.0,92,0.00,,,0.00,Wunderground v.1.15,2013-10-16 00:06:00,
2013-10-15 20:11:00,52.7,50.7,30.22,NNE,19,0.0,0.0,93,0.00,,,0.00,Wunderground v.1.15,2013-10-16 00:11:00,
2013-10-15 20:16:00,52.6,50.6,30.22,NNE,18,0.0,0.0,93,0.00,,,0.00,Wunderground v.1.15,2013-10-16 00:16:00,
2013-10-15 20:21:00,52.4,50.4,30.22,NNE,18,0.0,0.0,93,0.00,,,0.00,Wunderground v.1.15,2013-10-16 00:21:00,
2013-10-15 20:26:00,52.4,50.4,30.22,NNE,18,0.0,0.0,93,0.00,,,0.00,Wunderground v.1.15,2013-10-16 00:26:00,
2013-10-15 20:31:00,52.3,50.3,30.22,NNE,18,0.0,0.0,93,0.00,,,0.00,Wunderground v.1.15,2013-10-16 00:31:00,
2013-10-15 20:37:00,52.1,50.1,30.22,NNE,18,0.0,0.0,93,0.00,,,0.00,Wunderground v.1.15,2013-10-16 00:37:00,
2013-10-15 20:42:00,52.1,50.4,30.22,NNE,18,0.0,0.0,94,0.00,,,0.00,Wunderground v.1.15,2013-10-16 00:42:00,
2013-10-15 20:47:00,52.0,50.3,30.22,NNE,18,0.0,0.0,94,0.00,,,0.00,Wunderground v.1.15,2013-10-16 00:47:00,
2013-10-15 20:52:00,51.9,50.2,30.21,NNE,18,0.0,0.0,94,0.00,,,0.00,Wunderground v.1.15,2013-10-16 00:52:00,
2013-10-15 20:57:00,51.8,50.1,30.22,NNE,18,0.0,0.0,94,0.00,,,0.00,Wunderground v.1.15,2013-10-16 00:57:00,
2013-10-15 21:03:00,51.7,50.0,30.21,NNE,18,0.0,0.0,94,0.00,,,0.00,Wunderground v.1.15,2013-10-16 01:03:00,
2013-10-15 21:08:00,51.6,49.9,30.21,NNE,18,0.0,0.0,94,0.00,,,0.00,Wunderground v.1.15,2013-10-16 01:08:00,
2013-10-15 21:13:00,51.4,49.7,30.21,NNE,18,0.0,0.0,94,0.00,,,0.00,Wunderground v.1.15,2013-10-16 01:13:00,
2013-10-15 21:18:00,51.3,49.6,30.21,NNE,18,0.0,0.0,94,0.00,,,0.00,Wunderground v.1.15,2013-10-16 01:18:00,
2013-10-15 21:24:00,51.1,49.4,30.21,NNE,18,0.0,0.0,94,0.00,,,0.00,Wunderground v.1.15,2013-10-16 01:24:00,
2013-10-15 21:29:00,51.0,49.3,30.21,NNE,15,0.0,0.0,94,0.00,,,0.00,Wunderground v.1.15,2013-10-16 01:29:00,
2013-10-15 21:34:00,50.9,49.2,30.21,NNE,15,0.0,0.0,94,0.00,,,0.00,Wunderground v.1.15,2013-10-16 01:34:00,
2013-10-15 21:39:00,50.7,49.0,30.21,NNE,15,0.0,0.0,94,0.00,,,0.00,Wunderground v.1.15,2013-10-16 01:39:00,
2013-10-15 21:44:00,50.6,48.7,30.21,North,11,0.0,0.0,93,0.00,,,0.00,Wunderground v.1.15,2013-10-16 01:44:00,
2013-10-15 21:49:00,50.4,48.5,30.21,North,11,0.0,0.0,93,0.00,,,0.00,Wunderground v.1.15,2013-10-16 01:49:00,
2013-10-15 21:54:00,50.3,48.6,30.21,North,11,0.0,0.0,94,0.00,,,0.00,Wunderground v.1.15,2013-10-16 01:54:00,
2013-10-15 21:59:00,50.1,48.4,30.21,North,11,0.0,0.0,94,0.00,,,0.00,Wunderground v.1.15,2013-10-16 01:59:00,
2013-10-15 22:05:00,50.0,48.3,30.21,North,11,0.0,0.0,94,0.00,,,0.00,Wunderground v.1.15,2013-10-16 02:05:00,
2013-10-15 22:10:00,50.0,48.6,30.21,North,11,0.0,0.0,95,0.00,,,0.00,Wunderground v.1.15,2013-10-16 02:10:00,
2013-10-15 22:15:00,50.0,48.6,30.21,North,11,0.0,0.0,95,0.00,,,0.00,Wunderground v.1.15,2013-10-16 02:15:00,
2013-10-15 22:20:00,50.0,48.6,30.21,North,11,0.0,0.0,95,0.00,,,0.00,Wunderground v.1.15,2013-10-16 02:20:00,
2013-10-15 22:26:00,50.1,49.0,30.21,North,11,0.0,0.0,96,0.00,,,0.00,Wunderground v.1.15,2013-10-16 02:26:00,
2013-10-15 22:31:00,50.2,49.1,30.21,North,11,0.0,0.0,96,0.00,,,0.00,Wunderground v.1.15,2013-10-16 02:31:00,
2013-10-15 22:36:00,50.3,49.2,30.21,North,11,0.0,0.0,96,0.00,,,0.00,Wunderground v.1.15,2013-10-16 02:36:00,
2013-10-15 22:41:00,50.5,49.4,30.21,North,11,0.0,0.0,96,0.00,,,0.00,Wunderground v.1.15,2013-10-16 02:41:00,
2013-10-15 22:46:00,50.7,49.9,30.21,North,11,0.0,0.0,97,0.00,,,0.00,Wunderground v.1.15,2013-10-16 02:46:00,
2013-10-15 22:52:00,50.9,50.1,30.21,North,11,0.0,0.0,97,0.00,,,0.00,Wunderground v.1.15,2013-10-16 02:52:00,
2013-10-15 22:58:00,51.2,50.4,30.21,North,11,0.0,0.0,97,0.00,,,0.00,Wunderground v.1.15,2013-10-16 02:58:00,
2013-10-15 23:03:00,51.5,50.7,30.21,North,11,0.0,0.0,97,0.00,,,0.00,Wunderground v.1.15,2013-10-16 03:03:00,
2013-10-15 23:08:00,51.6,50.8,30.21,North,11,0.0,0.0,97,0.00,,,0.00,Wunderground v.1.15,2013-10-16 03:08:00,
2013-10-15 23:13:00,51.7,50.9,30.20,North,11,0.0,0.0,97,0.00,,,0.00,Wunderground v.1.15,2013-10-16 03:13:00,
2013-10-15 23:19:00,51.8,51.0,30.20,North,11,0.0,0.0,97,0.00,,,0.00,Wunderground v.1.15,2013-10-16 03:19:00,
2013-10-15 23:24:00,51.8,51.0,30.20,North,11,0.0,0.0,97,0.00,,,0.00,Wunderground v.1.15,2013-10-16 03:24:00,
2013-10-15 23:29:00,51.9,51.1,30.20,North,11,0.0,0.0,97,0.00,,,0.00,Wunderground v.1.15,2013-10-16 03:29:00,
2013-10-15 23:34:00,51.9,50.8,30.19,North,11,0.0,0.0,96,0.00,,,0.00,Wunderground v.1.15,2013-10-16 03:34:00,
2013-10-15 23:39:00,52.0,50.9,30.19,North,11,0.0,0.0,96,0.00,,,0.00,Wunderground v.1.15,2013-10-16 03:39:00,
2013-10-15 23:45:00,52.0,50.9,30.19,North,11,0.0,0.0,96,0.00,,,0.00,Wunderground v.1.15,2013-10-16 03:45:00,
2013-10-15 23:51:00,51.9,50.8,30.19,North,11,0.0,0.0,96,0.00,,,0.00,Wunderground v.1.15,2013-10-16 03:51:00,
2013-10-15 23:56:00,51.9,50.8,30.18,North,11,0.0,0.0,96,0.00,,,0.00,Wunderground v.1.15,2013-10-16 03:56:00,